sensor_id;sensor_type;location;lat;lon;timestamp;P1;durP1;ratioP1;P2;durP2;ratioP2
84814;SDS011;75050;53.190;5.562;2024-02-15T00:01:30;10.02;;;6.82;;
84814;SDS011;75050;53.190;5.562;2024-02-15T00:03:56;9.32;;;6.05;;
84814;SDS011;75050;53.190;5.562;2024-02-15T00:06:22;8.48;;;6.75;;
84814;SDS011;75050;53.190;5.562;2024-02-15T00:08:47;9.77;;;6.65;;
84814;SDS011;75050;53.190;5.562;2024-02-15T00:11:13;11.00;;;8.25;;
84814;SDS011;75050;53.190;5.562;2024-02-15T00:13:38;9.63;;;6.03;;
84814;SDS011;75050;53.190;5.562;2024-02-15T00:16:04;9.77;;;6.22;;
84814;SDS011;75050;53.190;5.562;2024-02-15T00:18:31;9.15;;;7.18;;
84814;SDS011;75050;53.190;5.562;2024-02-15T00:20:56;8.60;;;6.82;;
84814;SDS011;75050;53.190;5.562;2024-02-15T00:23:22;8.75;;;6.40;;
84814;SDS011;75050;53.190;5.562;2024-02-15T00:25:47;7.53;;;5.65;;
84814;SDS011;75050;53.190;5.562;2024-02-15T00:28:12;8.70;;;6.55;;
84814;SDS011;75050;53.190;5.562;2024-02-15T00:30:38;9.27;;;5.55;;
84814;SDS011;75050;53.190;5.562;2024-02-15T00:33:03;10.85;;;6.18;;
84814;SDS011;75050;53.190;5.562;2024-02-15T00:35:29;9.50;;;6.10;;
84814;SDS011;75050;53.190;5.562;2024-02-15T00:37:54;6.55;;;5.78;;
84814;SDS011;75050;53.190;5.562;2024-02-15T00:40:20;9.05;;;6.43;;
84814;SDS011;75050;53.190;5.562;2024-02-15T00:42:46;8.57;;;6.10;;
84814;SDS011;75050;53.190;5.562;2024-02-15T00:45:12;8.90;;;5.97;;
84814;SDS011;75050;53.190;5.562;2024-02-15T00:47:37;8.18;;;6.22;;
84814;SDS011;75050;53.190;5.562;2024-02-15T00:50:03;6.30;;;5.63;;
84814;SDS011;75050;53.190;5.562;2024-02-15T00:52:29;9.70;;;4.60;;
84814;SDS011;75050;53.190;5.562;2024-02-15T00:54:55;11.07;;;5.72;;
84814;SDS011;75050;53.190;5.562;2024-02-15T00:57:21;5.32;;;4.82;;
84814;SDS011;75050;53.190;5.562;2024-02-15T00:59:47;10.48;;;5.97;;
84814;SDS011;75050;53.190;5.562;2024-02-15T01:02:12;7.95;;;5.30;;
84814;SDS011;75050;53.190;5.562;2024-02-15T01:04:38;5.15;;;3.92;;
84814;SDS011;75050;53.190;5.562;2024-02-15T01:07:04;8.90;;;4.88;;
84814;SDS011;75050;53.190;5.562;2024-02-15T01:09:29;6.88;;;6.20;;
84814;SDS011;75050;53.190;5.562;2024-02-15T01:11:54;7.53;;;6.00;;
84814;SDS011;75050;53.190;5.562;2024-02-15T01:14:20;6.50;;;5.18;;
84814;SDS011;75050;53.190;5.562;2024-02-15T01:16:45;8.63;;;5.50;;
84814;SDS011;75050;53.190;5.562;2024-02-15T01:19:11;8.43;;;5.95;;
84814;SDS011;75050;53.190;5.562;2024-02-15T01:21:37;9.60;;;5.45;;
84814;SDS011;75050;53.190;5.562;2024-02-15T01:24:03;6.75;;;4.75;;
84814;SDS011;75050;53.190;5.562;2024-02-15T01:26:31;8.27;;;5.45;;
84814;SDS011;75050;53.190;5.562;2024-02-15T01:28:57;10.15;;;5.40;;
84814;SDS011;75050;53.190;5.562;2024-02-15T01:31:22;6.95;;;5.28;;
84814;SDS011;75050;53.190;5.562;2024-02-15T01:33:48;5.57;;;4.28;;
84814;SDS011;75050;53.190;5.562;2024-02-15T01:36:16;7.97;;;7.18;;
84814;SDS011;75050;53.190;5.562;2024-02-15T01:38:43;8.32;;;5.13;;
84814;SDS011;75050;53.190;5.562;2024-02-15T01:41:09;6.18;;;5.25;;
84814;SDS011;75050;53.190;5.562;2024-02-15T01:43:37;5.13;;;4.13;;
84814;SDS011;75050;53.190;5.562;2024-02-15T01:46:09;8.75;;;8.05;;
84814;SDS011;75050;53.190;5.562;2024-02-15T01:48:39;7.63;;;6.05;;
84814;SDS011;75050;53.190;5.562;2024-02-15T01:51:07;6.28;;;5.63;;
84814;SDS011;75050;53.190;5.562;2024-02-15T01:53:33;7.57;;;5.22;;
84814;SDS011;75050;53.190;5.562;2024-02-15T01:55:59;5.18;;;4.65;;
84814;SDS011;75050;53.190;5.562;2024-02-15T01:58:28;5.75;;;4.78;;
84814;SDS011;75050;53.190;5.562;2024-02-15T02:00:57;8.07;;;5.20;;
84814;SDS011;75050;53.190;5.562;2024-02-15T02:03:23;8.70;;;5.43;;
84814;SDS011;75050;53.190;5.562;2024-02-15T02:05:48;7.53;;;6.90;;
84814;SDS011;75050;53.190;5.562;2024-02-15T02:08:14;5.95;;;4.88;;
84814;SDS011;75050;53.190;5.562;2024-02-15T02:10:40;6.60;;;5.20;;
84814;SDS011;75050;53.190;5.562;2024-02-15T02:13:05;7.28;;;6.20;;
84814;SDS011;75050;53.190;5.562;2024-02-15T02:15:31;10.23;;;5.75;;
84814;SDS011;75050;53.190;5.562;2024-02-15T02:17:58;7.03;;;5.00;;
84814;SDS011;75050;53.190;5.562;2024-02-15T02:20:26;12.05;;;6.97;;
84814;SDS011;75050;53.190;5.562;2024-02-15T02:22:53;5.43;;;4.85;;
84814;SDS011;75050;53.190;5.562;2024-02-15T02:25:22;8.65;;;7.80;;
84814;SDS011;75050;53.190;5.562;2024-02-15T02:27:51;7.45;;;4.80;;
84814;SDS011;75050;53.190;5.562;2024-02-15T02:30:17;8.30;;;6.03;;
84814;SDS011;75050;53.190;5.562;2024-02-15T02:32:44;8.27;;;6.63;;
84814;SDS011;75050;53.190;5.562;2024-02-15T02:35:11;8.32;;;6.43;;
84814;SDS011;75050;53.190;5.562;2024-02-15T02:37:41;13.27;;;6.60;;
84814;SDS011;75050;53.190;5.562;2024-02-15T02:40:07;7.63;;;6.93;;
84814;SDS011;75050;53.190;5.562;2024-02-15T02:42:35;10.38;;;8.73;;
84814;SDS011;75050;53.190;5.562;2024-02-15T02:45:01;8.30;;;6.82;;
84814;SDS011;75050;53.190;5.562;2024-02-15T02:47:26;10.52;;;7.82;;
84814;SDS011;75050;53.190;5.562;2024-02-15T02:49:52;9.13;;;7.60;;
84814;SDS011;75050;53.190;5.562;2024-02-15T02:52:17;9.55;;;7.40;;
84814;SDS011;75050;53.190;5.562;2024-02-15T02:54:43;8.07;;;6.70;;
84814;SDS011;75050;53.190;5.562;2024-02-15T02:57:08;9.00;;;6.20;;
84814;SDS011;75050;53.190;5.562;2024-02-15T02:59:34;10.25;;;6.10;;
84814;SDS011;75050;53.190;5.562;2024-02-15T03:02:00;10.02;;;5.95;;
84814;SDS011;75050;53.190;5.562;2024-02-15T03:04:26;7.22;;;5.20;;
84814;SDS011;75050;53.190;5.562;2024-02-15T03:06:51;10.10;;;8.30;;
84814;SDS011;75050;53.190;5.562;2024-02-15T03:09:20;10.98;;;7.13;;
84814;SDS011;75050;53.190;5.562;2024-02-15T03:11:47;9.93;;;5.60;;
84814;SDS011;75050;53.190;5.562;2024-02-15T03:14:14;13.63;;;7.43;;
84814;SDS011;75050;53.190;5.562;2024-02-15T03:16:40;12.00;;;5.63;;
84814;SDS011;75050;53.190;5.562;2024-02-15T03:19:05;10.95;;;6.38;;
84814;SDS011;75050;53.190;5.562;2024-02-15T03:21:30;9.10;;;6.65;;
84814;SDS011;75050;53.190;5.562;2024-02-15T03:23:56;9.90;;;6.82;;
84814;SDS011;75050;53.190;5.562;2024-02-15T03:26:29;8.38;;;5.40;;
84814;SDS011;75050;53.190;5.562;2024-02-15T03:28:58;9.05;;;5.90;;
84814;SDS011;75050;53.190;5.562;2024-02-15T03:31:24;7.60;;;5.75;;
84814;SDS011;75050;53.190;5.562;2024-02-15T03:33:49;8.75;;;6.00;;
84814;SDS011;75050;53.190;5.562;2024-02-15T03:36:15;11.23;;;5.20;;
84814;SDS011;75050;53.190;5.562;2024-02-15T03:38:43;7.22;;;6.30;;
84814;SDS011;75050;53.190;5.562;2024-02-15T03:41:09;12.20;;;8.05;;
84814;SDS011;75050;53.190;5.562;2024-02-15T03:43:35;14.73;;;8.02;;
84814;SDS011;75050;53.190;5.562;2024-02-15T03:46:00;9.80;;;8.20;;
84814;SDS011;75050;53.190;5.562;2024-02-15T03:48:26;6.75;;;5.97;;
84814;SDS011;75050;53.190;5.562;2024-02-15T03:50:51;10.18;;;6.57;;
84814;SDS011;75050;53.190;5.562;2024-02-15T03:53:17;7.93;;;6.40;;
84814;SDS011;75050;53.190;5.562;2024-02-15T03:55:42;10.52;;;7.45;;
84814;SDS011;75050;53.190;5.562;2024-02-15T03:58:08;6.20;;;5.18;;
84814;SDS011;75050;53.190;5.562;2024-02-15T04:00:33;8.20;;;6.38;;
84814;SDS011;75050;53.190;5.562;2024-02-15T04:02:59;8.07;;;5.68;;
84814;SDS011;75050;53.190;5.562;2024-02-15T04:05:25;8.77;;;5.78;;
84814;SDS011;75050;53.190;5.562;2024-02-15T04:07:51;7.03;;;5.65;;
84814;SDS011;75050;53.190;5.562;2024-02-15T04:10:18;5.97;;;5.20;;
84814;SDS011;75050;53.190;5.562;2024-02-15T04:12:44;7.90;;;5.85;;
84814;SDS011;75050;53.190;5.562;2024-02-15T04:15:09;8.38;;;5.97;;
84814;SDS011;75050;53.190;5.562;2024-02-15T04:17:39;8.88;;;7.25;;
84814;SDS011;75050;53.190;5.562;2024-02-15T04:20:05;8.77;;;8.05;;
84814;SDS011;75050;53.190;5.562;2024-02-15T04:22:32;6.40;;;5.05;;
84814;SDS011;75050;53.190;5.562;2024-02-15T04:25:02;8.45;;;7.72;;
84814;SDS011;75050;53.190;5.562;2024-02-15T04:27:29;7.22;;;6.40;;
84814;SDS011;75050;53.190;5.562;2024-02-15T04:29:54;8.07;;;5.60;;
84814;SDS011;75050;53.190;5.562;2024-02-15T04:32:20;9.75;;;7.45;;
84814;SDS011;75050;53.190;5.562;2024-02-15T04:34:46;8.27;;;6.13;;
84814;SDS011;75050;53.190;5.562;2024-02-15T04:37:12;7.53;;;5.32;;
84814;SDS011;75050;53.190;5.562;2024-02-15T04:39:38;8.95;;;8.13;;
84814;SDS011;75050;53.190;5.562;2024-02-15T04:42:04;6.90;;;5.68;;
84814;SDS011;75050;53.190;5.562;2024-02-15T04:44:36;8.30;;;5.63;;
84814;SDS011;75050;53.190;5.562;2024-02-15T04:47:05;7.78;;;7.13;;
84814;SDS011;75050;53.190;5.562;2024-02-15T04:49:31;6.80;;;5.68;;
84814;SDS011;75050;53.190;5.562;2024-02-15T04:51:57;7.43;;;5.18;;
84814;SDS011;75050;53.190;5.562;2024-02-15T04:54:22;7.30;;;5.93;;
84814;SDS011;75050;53.190;5.562;2024-02-15T04:56:48;6.35;;;5.75;;
84814;SDS011;75050;53.190;5.562;2024-02-15T04:59:15;6.85;;;6.18;;
84814;SDS011;75050;53.190;5.562;2024-02-15T05:01:41;10.75;;;8.13;;
84814;SDS011;75050;53.190;5.562;2024-02-15T05:04:10;6.88;;;5.60;;
84814;SDS011;75050;53.190;5.562;2024-02-15T05:06:37;8.13;;;5.85;;
84814;SDS011;75050;53.190;5.562;2024-02-15T05:09:03;8.23;;;7.43;;
84814;SDS011;75050;53.190;5.562;2024-02-15T05:11:38;7.07;;;4.97;;
84814;SDS011;75050;53.190;5.562;2024-02-15T05:14:06;7.40;;;6.45;;
84814;SDS011;75050;53.190;5.562;2024-02-15T05:16:32;6.72;;;6.13;;
84814;SDS011;75050;53.190;5.562;2024-02-15T05:18:58;8.27;;;7.55;;
84814;SDS011;75050;53.190;5.562;2024-02-15T05:21:24;7.35;;;5.60;;
84814;SDS011;75050;53.190;5.562;2024-02-15T05:23:49;7.32;;;5.80;;
84814;SDS011;75050;53.190;5.562;2024-02-15T05:26:14;8.77;;;8.00;;
84814;SDS011;75050;53.190;5.562;2024-02-15T05:28:48;8.23;;;6.63;;
84814;SDS011;75050;53.190;5.562;2024-02-15T05:31:14;8.13;;;5.97;;
84814;SDS011;75050;53.190;5.562;2024-02-15T05:33:43;7.32;;;6.35;;
84814;SDS011;75050;53.190;5.562;2024-02-15T05:36:19;9.98;;;6.18;;
84814;SDS011;75050;53.190;5.562;2024-02-15T05:38:50;7.68;;;6.90;;
84814;SDS011;75050;53.190;5.562;2024-02-15T05:41:17;11.88;;;8.00;;
84814;SDS011;75050;53.190;5.562;2024-02-15T05:43:42;9.07;;;6.40;;
84814;SDS011;75050;53.190;5.562;2024-02-15T05:46:08;10.90;;;7.47;;
84814;SDS011;75050;53.190;5.562;2024-02-15T05:48:35;8.25;;;7.45;;
84814;SDS011;75050;53.190;5.562;2024-02-15T05:51:02;6.95;;;5.65;;
84814;SDS011;75050;53.190;5.562;2024-02-15T05:53:28;9.88;;;8.52;;
84814;SDS011;75050;53.190;5.562;2024-02-15T05:55:54;10.43;;;9.40;;
84814;SDS011;75050;53.190;5.562;2024-02-15T05:58:20;7.70;;;5.85;;
84814;SDS011;75050;53.190;5.562;2024-02-15T06:00:46;8.82;;;7.25;;
84814;SDS011;75050;53.190;5.562;2024-02-15T06:03:15;7.20;;;6.50;;
84814;SDS011;75050;53.190;5.562;2024-02-15T06:05:40;9.23;;;7.25;;
84814;SDS011;75050;53.190;5.562;2024-02-15T06:08:06;16.73;;;15.40;;
84814;SDS011;75050;53.190;5.562;2024-02-15T06:10:31;9.45;;;7.50;;
84814;SDS011;75050;53.190;5.562;2024-02-15T06:12:57;9.05;;;7.70;;
84814;SDS011;75050;53.190;5.562;2024-02-15T06:15:24;9.60;;;5.95;;
84814;SDS011;75050;53.190;5.562;2024-02-15T06:17:49;9.40;;;8.60;;
84814;SDS011;75050;53.190;5.562;2024-02-15T06:20:15;8.52;;;6.95;;
84814;SDS011;75050;53.190;5.562;2024-02-15T06:22:43;8.82;;;7.57;;
84814;SDS011;75050;53.190;5.562;2024-02-15T06:25:09;11.35;;;10.35;;
84814;SDS011;75050;53.190;5.562;2024-02-15T06:27:38;10.90;;;8.80;;
84814;SDS011;75050;53.190;5.562;2024-02-15T06:30:08;10.45;;;8.35;;
84814;SDS011;75050;53.190;5.562;2024-02-15T06:32:53;9.95;;;7.93;;
84814;SDS011;75050;53.190;5.562;2024-02-15T06:35:37;9.23;;;7.85;;
84814;SDS011;75050;53.190;5.562;2024-02-15T06:38:21;11.13;;;8.65;;
84814;SDS011;75050;53.190;5.562;2024-02-15T06:41:05;11.15;;;8.15;;
84814;SDS011;75050;53.190;5.562;2024-02-15T06:43:30;11.98;;;8.60;;
84814;SDS011;75050;53.190;5.562;2024-02-15T06:45:55;10.98;;;8.88;;
84814;SDS011;75050;53.190;5.562;2024-02-15T06:48:21;11.98;;;9.90;;
84814;SDS011;75050;53.190;5.562;2024-02-15T06:50:49;12.38;;;9.77;;
84814;SDS011;75050;53.190;5.562;2024-02-15T06:53:14;10.35;;;8.30;;
84814;SDS011;75050;53.190;5.562;2024-02-15T06:55:40;14.55;;;10.30;;
84814;SDS011;75050;53.190;5.562;2024-02-15T06:58:05;14.32;;;9.18;;
84814;SDS011;75050;53.190;5.562;2024-02-15T07:00:31;11.93;;;9.73;;
84814;SDS011;75050;53.190;5.562;2024-02-15T07:02:56;11.88;;;9.40;;
84814;SDS011;75050;53.190;5.562;2024-02-15T07:05:22;11.65;;;10.30;;
84814;SDS011;75050;53.190;5.562;2024-02-15T07:07:48;12.65;;;9.40;;
84814;SDS011;75050;53.190;5.562;2024-02-15T07:10:14;14.82;;;13.18;;
84814;SDS011;75050;53.190;5.562;2024-02-15T07:12:41;13.48;;;9.88;;
84814;SDS011;75050;53.190;5.562;2024-02-15T07:15:08;12.50;;;8.82;;
84814;SDS011;75050;53.190;5.562;2024-02-15T07:17:34;15.93;;;10.80;;
84814;SDS011;75050;53.190;5.562;2024-02-15T07:20:02;12.23;;;8.68;;
84814;SDS011;75050;53.190;5.562;2024-02-15T07:22:30;14.10;;;10.15;;
84814;SDS011;75050;53.190;5.562;2024-02-15T07:24:56;11.80;;;9.85;;
84814;SDS011;75050;53.190;5.562;2024-02-15T07:27:22;13.13;;;11.40;;
84814;SDS011;75050;53.190;5.562;2024-02-15T07:29:50;13.73;;;11.25;;
84814;SDS011;75050;53.190;5.562;2024-02-15T07:32:15;13.88;;;11.38;;
84814;SDS011;75050;53.190;5.562;2024-02-15T07:34:42;13.73;;;10.85;;
84814;SDS011;75050;53.190;5.562;2024-02-15T07:37:08;13.38;;;10.93;;
84814;SDS011;75050;53.190;5.562;2024-02-15T07:39:34;13.70;;;10.35;;
84814;SDS011;75050;53.190;5.562;2024-02-15T07:42:01;12.07;;;10.23;;
84814;SDS011;75050;53.190;5.562;2024-02-15T07:44:29;14.48;;;11.73;;
84814;SDS011;75050;53.190;5.562;2024-02-15T07:46:57;15.55;;;11.98;;
84814;SDS011;75050;53.190;5.562;2024-02-15T07:49:25;12.60;;;10.82;;
84814;SDS011;75050;53.190;5.562;2024-02-15T07:51:51;13.82;;;10.73;;
84814;SDS011;75050;53.190;5.562;2024-02-15T07:54:19;14.35;;;9.75;;
84814;SDS011;75050;53.190;5.562;2024-02-15T07:56:48;15.10;;;10.90;;
84814;SDS011;75050;53.190;5.562;2024-02-15T07:59:14;18.23;;;12.50;;
84814;SDS011;75050;53.190;5.562;2024-02-15T08:01:44;15.88;;;11.65;;
84814;SDS011;75050;53.190;5.562;2024-02-15T08:04:15;15.02;;;10.75;;
84814;SDS011;75050;53.190;5.562;2024-02-15T08:06:44;13.55;;;11.55;;
84814;SDS011;75050;53.190;5.562;2024-02-15T08:09:09;14.15;;;12.50;;
84814;SDS011;75050;53.190;5.562;2024-02-15T08:11:41;15.50;;;10.32;;
84814;SDS011;75050;53.190;5.562;2024-02-15T08:14:07;13.27;;;10.30;;
84814;SDS011;75050;53.190;5.562;2024-02-15T08:16:35;14.82;;;11.68;;
84814;SDS011;75050;53.190;5.562;2024-02-15T08:19:02;14.20;;;11.75;;
84814;SDS011;75050;53.190;5.562;2024-02-15T08:21:31;14.40;;;11.68;;
84814;SDS011;75050;53.190;5.562;2024-02-15T08:24:02;17.08;;;13.88;;
84814;SDS011;75050;53.190;5.562;2024-02-15T08:26:32;16.42;;;10.80;;
84814;SDS011;75050;53.190;5.562;2024-02-15T08:28:58;15.40;;;10.68;;
84814;SDS011;75050;53.190;5.562;2024-02-15T08:31:23;13.73;;;9.45;;
84814;SDS011;75050;53.190;5.562;2024-02-15T08:33:49;17.13;;;14.10;;
84814;SDS011;75050;53.190;5.562;2024-02-15T08:36:14;15.63;;;12.18;;
84814;SDS011;75050;53.190;5.562;2024-02-15T08:38:39;14.50;;;11.40;;
84814;SDS011;75050;53.190;5.562;2024-02-15T08:41:06;13.23;;;11.07;;
84814;SDS011;75050;53.190;5.562;2024-02-15T08:43:33;16.40;;;12.88;;
84814;SDS011;75050;53.190;5.562;2024-02-15T08:45:59;14.77;;;11.82;;
84814;SDS011;75050;53.190;5.562;2024-02-15T08:48:24;16.50;;;11.55;;
84814;SDS011;75050;53.190;5.562;2024-02-15T08:50:51;14.73;;;10.85;;
84814;SDS011;75050;53.190;5.562;2024-02-15T08:53:16;15.10;;;13.15;;
84814;SDS011;75050;53.190;5.562;2024-02-15T08:55:44;16.80;;;13.02;;
84814;SDS011;75050;53.190;5.562;2024-02-15T08:58:10;16.38;;;13.20;;
84814;SDS011;75050;53.190;5.562;2024-02-15T09:00:35;15.60;;;12.57;;
84814;SDS011;75050;53.190;5.562;2024-02-15T09:03:02;15.73;;;12.13;;
84814;SDS011;75050;53.190;5.562;2024-02-15T09:05:28;17.73;;;14.07;;
84814;SDS011;75050;53.190;5.562;2024-02-15T09:07:53;16.40;;;12.18;;
84814;SDS011;75050;53.190;5.562;2024-02-15T09:10:19;17.10;;;14.50;;
84814;SDS011;75050;53.190;5.562;2024-02-15T09:12:47;17.52;;;14.05;;
84814;SDS011;75050;53.190;5.562;2024-02-15T09:15:14;18.55;;;13.68;;
84814;SDS011;75050;53.190;5.562;2024-02-15T09:17:40;16.98;;;14.02;;
84814;SDS011;75050;53.190;5.562;2024-02-15T09:22:51;18.15;;;14.32;;
84814;SDS011;75050;53.190;5.562;2024-02-15T09:25:17;16.02;;;12.48;;
84814;SDS011;75050;53.190;5.562;2024-02-15T09:27:43;18.85;;;14.65;;
84814;SDS011;75050;53.190;5.562;2024-02-15T09:30:10;16.52;;;12.32;;
84814;SDS011;75050;53.190;5.562;2024-02-15T09:32:37;16.98;;;12.75;;
84814;SDS011;75050;53.190;5.562;2024-02-15T09:35:03;17.15;;;13.32;;
84814;SDS011;75050;53.190;5.562;2024-02-15T09:37:33;15.55;;;12.65;;
84814;SDS011;75050;53.190;5.562;2024-02-15T09:39:59;16.52;;;12.70;;
84814;SDS011;75050;53.190;5.562;2024-02-15T09:42:29;14.25;;;11.60;;
84814;SDS011;75050;53.190;5.562;2024-02-15T09:44:55;17.08;;;12.32;;
84814;SDS011;75050;53.190;5.562;2024-02-15T09:47:20;19.20;;;13.95;;
84814;SDS011;75050;53.190;5.562;2024-02-15T09:49:48;16.73;;;13.98;;
84814;SDS011;75050;53.190;5.562;2024-02-15T09:52:14;16.27;;;12.32;;
84814;SDS011;75050;53.190;5.562;2024-02-15T09:54:43;15.23;;;11.60;;
84814;SDS011;75050;53.190;5.562;2024-02-15T09:57:09;17.08;;;12.00;;
84814;SDS011;75050;53.190;5.562;2024-02-15T09:59:38;16.27;;;12.82;;
84814;SDS011;75050;53.190;5.562;2024-02-15T10:02:04;15.63;;;11.90;;
84814;SDS011;75050;53.190;5.562;2024-02-15T10:04:36;17.40;;;12.70;;
84814;SDS011;75050;53.190;5.562;2024-02-15T10:07:02;15.45;;;11.70;;
84814;SDS011;75050;53.190;5.562;2024-02-15T10:09:28;16.10;;;12.35;;
84814;SDS011;75050;53.190;5.562;2024-02-15T10:11:59;15.95;;;11.90;;
84814;SDS011;75050;53.190;5.562;2024-02-15T10:16:55;14.65;;;11.38;;
84814;SDS011;75050;53.190;5.562;2024-02-15T10:19:21;14.88;;;11.32;;
84814;SDS011;75050;53.190;5.562;2024-02-15T10:21:53;15.13;;;11.95;;
84814;SDS011;75050;53.190;5.562;2024-02-15T10:24:25;14.50;;;12.07;;
84814;SDS011;75050;53.190;5.562;2024-02-15T10:26:59;13.70;;;12.13;;
84814;SDS011;75050;53.190;5.562;2024-02-15T10:29:29;13.50;;;11.57;;
84814;SDS011;75050;53.190;5.562;2024-02-15T10:31:59;15.88;;;13.13;;
84814;SDS011;75050;53.190;5.562;2024-02-15T10:34:25;16.15;;;12.05;;
84814;SDS011;75050;53.190;5.562;2024-02-15T10:36:55;17.42;;;11.63;;
84814;SDS011;75050;53.190;5.562;2024-02-15T10:39:41;16.30;;;11.55;;
84814;SDS011;75050;53.190;5.562;2024-02-15T10:42:07;13.93;;;11.55;;
84814;SDS011;75050;53.190;5.562;2024-02-15T10:44:35;14.05;;;11.63;;
84814;SDS011;75050;53.190;5.562;2024-02-15T10:47:03;14.20;;;10.80;;
84814;SDS011;75050;53.190;5.562;2024-02-15T10:49:32;16.42;;;14.75;;
84814;SDS011;75050;53.190;5.562;2024-02-15T10:51:58;12.80;;;10.63;;
84814;SDS011;75050;53.190;5.562;2024-02-15T10:57:20;12.63;;;9.15;;
84814;SDS011;75050;53.190;5.562;2024-02-15T10:59:57;13.70;;;9.80;;
84814;SDS011;75050;53.190;5.562;2024-02-15T11:05:05;12.10;;;10.75;;
84814;SDS011;75050;53.190;5.562;2024-02-15T11:07:34;12.95;;;10.30;;
84814;SDS011;75050;53.190;5.562;2024-02-15T11:10:00;11.15;;;9.95;;
84814;SDS011;75050;53.190;5.562;2024-02-15T11:12:29;12.18;;;10.40;;
84814;SDS011;75050;53.190;5.562;2024-02-15T11:14:56;14.23;;;12.82;;
84814;SDS011;75050;53.190;5.562;2024-02-15T11:20:02;12.55;;;10.02;;
84814;SDS011;75050;53.190;5.562;2024-02-15T11:22:33;11.27;;;10.07;;
84814;SDS011;75050;53.190;5.562;2024-02-15T11:25:02;13.30;;;11.85;;
84814;SDS011;75050;53.190;5.562;2024-02-15T11:27:37;12.25;;;9.45;;
84814;SDS011;75050;53.190;5.562;2024-02-15T11:30:04;12.20;;;10.88;;
84814;SDS011;75050;53.190;5.562;2024-02-15T11:32:43;12.23;;;10.55;;
84814;SDS011;75050;53.190;5.562;2024-02-15T11:40:13;13.30;;;9.93;;
84814;SDS011;75050;53.190;5.562;2024-02-15T11:42:40;13.48;;;9.88;;
84814;SDS011;75050;53.190;5.562;2024-02-15T11:45:05;11.80;;;9.48;;
84814;SDS011;75050;53.190;5.562;2024-02-15T11:47:32;14.38;;;11.95;;
84814;SDS011;75050;53.190;5.562;2024-02-15T11:50:02;12.93;;;10.52;;
84814;SDS011;75050;53.190;5.562;2024-02-15T11:52:28;12.00;;;10.52;;
84814;SDS011;75050;53.190;5.562;2024-02-15T11:54:53;12.20;;;9.65;;
84814;SDS011;75050;53.190;5.562;2024-02-15T11:57:28;16.05;;;14.43;;
84814;SDS011;75050;53.190;5.562;2024-02-15T12:00:02;13.13;;;11.73;;
84814;SDS011;75050;53.190;5.562;2024-02-15T12:02:54;12.63;;;9.82;;
84814;SDS011;75050;53.190;5.562;2024-02-15T12:05:38;10.57;;;9.02;;
84814;SDS011;75050;53.190;5.562;2024-02-15T12:08:22;10.18;;;8.98;;
84814;SDS011;75050;53.190;5.562;2024-02-15T12:11:06;12.57;;;10.25;;
84814;SDS011;75050;53.190;5.562;2024-02-15T12:13:51;14.18;;;11.90;;
84814;SDS011;75050;53.190;5.562;2024-02-15T12:16:35;13.82;;;9.68;;
84814;SDS011;75050;53.190;5.562;2024-02-15T12:19:19;13.35;;;10.30;;
84814;SDS011;75050;53.190;5.562;2024-02-15T12:21:46;13.45;;;9.65;;
84814;SDS011;75050;53.190;5.562;2024-02-15T12:24:12;13.75;;;10.43;;
84814;SDS011;75050;53.190;5.562;2024-02-15T12:26:38;13.32;;;11.25;;
84814;SDS011;75050;53.190;5.562;2024-02-15T12:29:06;13.98;;;11.77;;
84814;SDS011;75050;53.190;5.562;2024-02-15T12:31:33;13.55;;;11.60;;
84814;SDS011;75050;53.190;5.562;2024-02-15T12:34:03;14.80;;;10.30;;
84814;SDS011;75050;53.190;5.562;2024-02-15T12:36:33;20.20;;;18.52;;
84814;SDS011;75050;53.190;5.562;2024-02-15T12:39:02;13.50;;;11.15;;
84814;SDS011;75050;53.190;5.562;2024-02-15T12:41:35;14.85;;;10.63;;
84814;SDS011;75050;53.190;5.562;2024-02-15T12:44:01;23.15;;;21.13;;
84814;SDS011;75050;53.190;5.562;2024-02-15T12:46:27;14.93;;;13.32;;
84814;SDS011;75050;53.190;5.562;2024-02-15T12:49:05;15.43;;;11.68;;
84814;SDS011;75050;53.190;5.562;2024-02-15T12:51:32;14.18;;;10.75;;
84814;SDS011;75050;53.190;5.562;2024-02-15T12:54:07;15.70;;;12.52;;
84814;SDS011;75050;53.190;5.562;2024-02-15T12:56:34;14.05;;;10.75;;
84814;SDS011;75050;53.190;5.562;2024-02-15T12:58:59;13.88;;;11.07;;
84814;SDS011;75050;53.190;5.562;2024-02-15T13:01:25;16.08;;;13.20;;
84814;SDS011;75050;53.190;5.562;2024-02-15T13:03:53;14.18;;;11.60;;
84814;SDS011;75050;53.190;5.562;2024-02-15T13:06:19;15.57;;;13.50;;
84814;SDS011;75050;53.190;5.562;2024-02-15T13:08:48;16.13;;;10.88;;
84814;SDS011;75050;53.190;5.562;2024-02-15T13:11:14;15.77;;;11.68;;
84814;SDS011;75050;53.190;5.562;2024-02-15T13:13:40;13.52;;;10.77;;
84814;SDS011;75050;53.190;5.562;2024-02-15T13:16:07;13.88;;;10.75;;
84814;SDS011;75050;53.190;5.562;2024-02-15T13:18:33;17.80;;;12.93;;
84814;SDS011;75050;53.190;5.562;2024-02-15T13:20:58;15.43;;;11.95;;
84814;SDS011;75050;53.190;5.562;2024-02-15T13:23:24;16.10;;;12.48;;
84814;SDS011;75050;53.190;5.562;2024-02-15T13:25:50;16.00;;;11.05;;
84814;SDS011;75050;53.190;5.562;2024-02-15T13:28:17;14.65;;;11.55;;
84814;SDS011;75050;53.190;5.562;2024-02-15T13:30:43;15.70;;;11.77;;
84814;SDS011;75050;53.190;5.562;2024-02-15T13:33:10;15.80;;;11.95;;
84814;SDS011;75050;53.190;5.562;2024-02-15T13:35:36;16.98;;;12.27;;
84814;SDS011;75050;53.190;5.562;2024-02-15T13:38:01;19.80;;;12.63;;
84814;SDS011;75050;53.190;5.562;2024-02-15T13:40:28;16.63;;;12.85;;
84814;SDS011;75050;53.190;5.562;2024-02-15T13:42:56;19.23;;;13.65;;
84814;SDS011;75050;53.190;5.562;2024-02-15T13:45:29;18.08;;;13.10;;
84814;SDS011;75050;53.190;5.562;2024-02-15T13:48:09;18.55;;;12.30;;
84814;SDS011;75050;53.190;5.562;2024-02-15T13:50:35;16.35;;;12.32;;
84814;SDS011;75050;53.190;5.562;2024-02-15T13:53:01;15.50;;;12.15;;
84814;SDS011;75050;53.190;5.562;2024-02-15T13:55:28;17.83;;;13.80;;
84814;SDS011;75050;53.190;5.562;2024-02-15T13:57:54;16.98;;;12.20;;
84814;SDS011;75050;53.190;5.562;2024-02-15T14:00:24;15.25;;;10.48;;
84814;SDS011;75050;53.190;5.562;2024-02-15T14:02:59;16.80;;;13.20;;
84814;SDS011;75050;53.190;5.562;2024-02-15T14:05:26;19.02;;;12.75;;
84814;SDS011;75050;53.190;5.562;2024-02-15T14:08:00;20.10;;;13.38;;
84814;SDS011;75050;53.190;5.562;2024-02-15T14:10:31;18.63;;;15.80;;
84814;SDS011;75050;53.190;5.562;2024-02-15T14:13:02;17.27;;;12.35;;
84814;SDS011;75050;53.190;5.562;2024-02-15T14:15:30;17.15;;;11.48;;
84814;SDS011;75050;53.190;5.562;2024-02-15T14:18:02;18.50;;;12.60;;
84814;SDS011;75050;53.190;5.562;2024-02-15T14:20:35;16.98;;;13.18;;
84814;SDS011;75050;53.190;5.562;2024-02-15T14:23:01;16.83;;;12.45;;
84814;SDS011;75050;53.190;5.562;2024-02-15T14:25:30;15.77;;;11.68;;
84814;SDS011;75050;53.190;5.562;2024-02-15T14:27:56;16.83;;;12.00;;
84814;SDS011;75050;53.190;5.562;2024-02-15T14:30:23;15.77;;;11.57;;
84814;SDS011;75050;53.190;5.562;2024-02-15T14:33:06;18.20;;;11.88;;
84814;SDS011;75050;53.190;5.562;2024-02-15T14:35:36;17.98;;;13.75;;
84814;SDS011;75050;53.190;5.562;2024-02-15T14:38:05;16.45;;;12.48;;
84814;SDS011;75050;53.190;5.562;2024-02-15T14:40:38;14.82;;;11.27;;
84814;SDS011;75050;53.190;5.562;2024-02-15T14:43:09;17.42;;;11.93;;
84814;SDS011;75050;53.190;5.562;2024-02-15T14:45:38;15.88;;;12.75;;
84814;SDS011;75050;53.190;5.562;2024-02-15T14:48:07;20.15;;;14.00;;
84814;SDS011;75050;53.190;5.562;2024-02-15T14:50:37;20.00;;;14.45;;
84814;SDS011;75050;53.190;5.562;2024-02-15T14:53:03;14.77;;;12.00;;
84814;SDS011;75050;53.190;5.562;2024-02-15T14:55:29;16.55;;;12.90;;